CYS weather

Cheyenne Regional Jerry Olson Field
Cheyenne, Wyoming, United States

Public forecast

Using degrees Fahrenheit for public forecast. Weather courtesy of forecast.io.

METAR (pilot weather report)

Retrieved 2019/09/16 22:53 UTC (21 minutes ago):

KCYS 162253Z 33005KT 10SM CLR 27/M02 A2999 RMK AO2 SLP066 T02671017

TAF (pilot weather forecast)

Retrieved 2019/09/16 18:22 UTC (5 hours ago):

TAF KCYS 161720Z 1618/1718 30015G25KT P6SM SKC FM170300 25008KT P6SM BKN100 FM171500 27015G25KT P6SM SCT150